sensor_id;sensor_type;location;lat;lon;timestamp;P1;durP1;ratioP1;P2;durP2;ratioP2
6947;SDS011;3513;47.664;9.162;2024-01-25T00:00:53;3.07;;;0.73;;
6947;SDS011;3513;47.664;9.162;2024-01-25T00:03:18;2.03;;;0.70;;
6947;SDS011;3513;47.664;9.162;2024-01-25T00:05:44;2.00;;;0.73;;
6947;SDS011;3513;47.664;9.162;2024-01-25T00:08:10;4.60;;;1.03;;
6947;SDS011;3513;47.664;9.162;2024-01-25T00:10:35;7.63;;;0.80;;
6947;SDS011;3513;47.664;9.162;2024-01-25T00:13:01;2.07;;;1.03;;
6947;SDS011;3513;47.664;9.162;2024-01-25T00:15:27;15.30;;;1.30;;
6947;SDS011;3513;47.664;9.162;2024-01-25T00:17:52;9.70;;;1.27;;
6947;SDS011;3513;47.664;9.162;2024-01-25T00:20:18;4.10;;;1.00;;
6947;SDS011;3513;47.664;9.162;2024-01-25T00:22:43;3.47;;;1.30;;
6947;SDS011;3513;47.664;9.162;2024-01-25T00:25:09;2.33;;;0.90;;
6947;SDS011;3513;47.664;9.162;2024-01-25T00:27:35;3.60;;;0.83;;
6947;SDS011;3513;47.664;9.162;2024-01-25T00:30:00;1.53;;;0.83;;
6947;SDS011;3513;47.664;9.162;2024-01-25T00:32:26;4.43;;;0.93;;
6947;SDS011;3513;47.664;9.162;2024-01-25T00:34:51;5.50;;;1.57;;
6947;SDS011;3513;47.664;9.162;2024-01-25T00:37:17;2.50;;;0.80;;
6947;SDS011;3513;47.664;9.162;2024-01-25T00:39:43;1.93;;;0.70;;
6947;SDS011;3513;47.664;9.162;2024-01-25T00:42:09;3.30;;;1.00;;
6947;SDS011;3513;47.664;9.162;2024-01-25T00:44:39;7.20;;;2.03;;
6947;SDS011;3513;47.664;9.162;2024-01-25T00:47:05;5.23;;;1.00;;
6947;SDS011;3513;47.664;9.162;2024-01-25T00:49:31;4.40;;;1.27;;
6947;SDS011;3513;47.664;9.162;2024-01-25T00:52:00;1.97;;;0.70;;
6947;SDS011;3513;47.664;9.162;2024-01-25T00:54:27;4.37;;;1.23;;
6947;SDS011;3513;47.664;9.162;2024-01-25T00:56:53;4.30;;;0.90;;
6947;SDS011;3513;47.664;9.162;2024-01-25T00:59:19;3.77;;;1.20;;
6947;SDS011;3513;47.664;9.162;2024-01-25T01:01:46;2.70;;;0.90;;
6947;SDS011;3513;47.664;9.162;2024-01-25T01:04:13;9.20;;;1.57;;
6947;SDS011;3513;47.664;9.162;2024-01-25T01:06:39;8.20;;;0.90;;
6947;SDS011;3513;47.664;9.162;2024-01-25T01:09:05;1.90;;;0.77;;
6947;SDS011;3513;47.664;9.162;2024-01-25T01:11:30;4.83;;;1.27;;
6947;SDS011;3513;47.664;9.162;2024-01-25T01:13:56;3.10;;;1.30;;
6947;SDS011;3513;47.664;9.162;2024-01-25T01:16:22;6.37;;;1.43;;
6947;SDS011;3513;47.664;9.162;2024-01-25T01:18:47;4.73;;;1.03;;
6947;SDS011;3513;47.664;9.162;2024-01-25T01:21:13;3.23;;;1.00;;
6947;SDS011;3513;47.664;9.162;2024-01-25T01:23:38;3.43;;;1.30;;
6947;SDS011;3513;47.664;9.162;2024-01-25T01:26:04;5.20;;;1.20;;
6947;SDS011;3513;47.664;9.162;2024-01-25T01:28:30;8.93;;;2.00;;
6947;SDS011;3513;47.664;9.162;2024-01-25T01:30:56;4.60;;;1.53;;
6947;SDS011;3513;47.664;9.162;2024-01-25T01:33:21;8.57;;;1.53;;
6947;SDS011;3513;47.664;9.162;2024-01-25T01:35:47;3.83;;;1.20;;
6947;SDS011;3513;47.664;9.162;2024-01-25T01:38:12;7.07;;;1.60;;
6947;SDS011;3513;47.664;9.162;2024-01-25T01:40:38;5.27;;;1.60;;
6947;SDS011;3513;47.664;9.162;2024-01-25T01:43:03;11.53;;;1.77;;
6947;SDS011;3513;47.664;9.162;2024-01-25T01:45:29;5.10;;;1.20;;
6947;SDS011;3513;47.664;9.162;2024-01-25T01:47:55;2.83;;;1.00;;
6947;SDS011;3513;47.664;9.162;2024-01-25T01:50:21;12.27;;;2.13;;
6947;SDS011;3513;47.664;9.162;2024-01-25T01:52:48;7.87;;;1.73;;
6947;SDS011;3513;47.664;9.162;2024-01-25T01:55:15;20.17;;;2.53;;
6947;SDS011;3513;47.664;9.162;2024-01-25T01:57:42;7.90;;;1.67;;
6947;SDS011;3513;47.664;9.162;2024-01-25T02:00:09;6.47;;;1.60;;
6947;SDS011;3513;47.664;9.162;2024-01-25T02:02:35;5.50;;;1.90;;
6947;SDS011;3513;47.664;9.162;2024-01-25T02:05:01;6.97;;;1.40;;
6947;SDS011;3513;47.664;9.162;2024-01-25T02:07:26;4.00;;;1.80;;
6947;SDS011;3513;47.664;9.162;2024-01-25T02:09:53;13.13;;;1.30;;
6947;SDS011;3513;47.664;9.162;2024-01-25T02:12:18;20.13;;;2.30;;
6947;SDS011;3513;47.664;9.162;2024-01-25T02:14:45;10.73;;;1.40;;
6947;SDS011;3513;47.664;9.162;2024-01-25T02:17:10;2.10;;;1.30;;
6947;SDS011;3513;47.664;9.162;2024-01-25T02:19:36;8.03;;;1.60;;
6947;SDS011;3513;47.664;9.162;2024-01-25T02:22:02;4.43;;;1.37;;
6947;SDS011;3513;47.664;9.162;2024-01-25T02:24:29;5.33;;;1.67;;
6947;SDS011;3513;47.664;9.162;2024-01-25T02:26:55;4.57;;;1.30;;
6947;SDS011;3513;47.664;9.162;2024-01-25T02:29:21;7.47;;;1.97;;
6947;SDS011;3513;47.664;9.162;2024-01-25T02:31:47;2.23;;;1.40;;
6947;SDS011;3513;47.664;9.162;2024-01-25T02:34:12;3.37;;;1.40;;
6947;SDS011;3513;47.664;9.162;2024-01-25T02:36:38;6.70;;;1.57;;
6947;SDS011;3513;47.664;9.162;2024-01-25T02:39:03;7.43;;;1.57;;
6947;SDS011;3513;47.664;9.162;2024-01-25T02:41:32;3.53;;;1.60;;
6947;SDS011;3513;47.664;9.162;2024-01-25T02:43:58;4.43;;;1.00;;
6947;SDS011;3513;47.664;9.162;2024-01-25T02:46:24;7.50;;;2.13;;
6947;SDS011;3513;47.664;9.162;2024-01-25T02:48:50;5.23;;;1.30;;
6947;SDS011;3513;47.664;9.162;2024-01-25T02:51:15;5.60;;;1.27;;
6947;SDS011;3513;47.664;9.162;2024-01-25T02:53:41;4.07;;;1.33;;
6947;SDS011;3513;47.664;9.162;2024-01-25T02:56:06;8.47;;;2.43;;
6947;SDS011;3513;47.664;9.162;2024-01-25T02:58:32;13.00;;;1.53;;
6947;SDS011;3513;47.664;9.162;2024-01-25T03:00:58;4.10;;;1.00;;
6947;SDS011;3513;47.664;9.162;2024-01-25T03:03:24;5.83;;;1.10;;
6947;SDS011;3513;47.664;9.162;2024-01-25T03:05:50;5.77;;;1.40;;
6947;SDS011;3513;47.664;9.162;2024-01-25T03:08:16;3.90;;;1.40;;
6947;SDS011;3513;47.664;9.162;2024-01-25T03:10:42;10.90;;;1.67;;
6947;SDS011;3513;47.664;9.162;2024-01-25T03:13:08;3.57;;;1.57;;
6947;SDS011;3513;47.664;9.162;2024-01-25T03:15:33;2.73;;;0.93;;
6947;SDS011;3513;47.664;9.162;2024-01-25T03:17:59;4.40;;;1.27;;
6947;SDS011;3513;47.664;9.162;2024-01-25T03:20:24;5.93;;;1.30;;
6947;SDS011;3513;47.664;9.162;2024-01-25T03:22:50;12.80;;;1.70;;
6947;SDS011;3513;47.664;9.162;2024-01-25T03:25:15;4.50;;;1.20;;
6947;SDS011;3513;47.664;9.162;2024-01-25T03:27:41;9.73;;;1.13;;
6947;SDS011;3513;47.664;9.162;2024-01-25T03:30:07;3.00;;;1.10;;
6947;SDS011;3513;47.664;9.162;2024-01-25T03:32:33;1.70;;;1.00;;
6947;SDS011;3513;47.664;9.162;2024-01-25T03:34:59;3.77;;;1.07;;
6947;SDS011;3513;47.664;9.162;2024-01-25T03:37:25;2.03;;;1.20;;
6947;SDS011;3513;47.664;9.162;2024-01-25T03:39:50;6.07;;;1.23;;
6947;SDS011;3513;47.664;9.162;2024-01-25T03:42:16;7.40;;;1.77;;
6947;SDS011;3513;47.664;9.162;2024-01-25T03:44:42;2.63;;;1.07;;
6947;SDS011;3513;47.664;9.162;2024-01-25T03:47:08;2.03;;;0.67;;
6947;SDS011;3513;47.664;9.162;2024-01-25T03:49:33;5.60;;;0.90;;
6947;SDS011;3513;47.664;9.162;2024-01-25T03:51:59;3.27;;;1.10;;
6947;SDS011;3513;47.664;9.162;2024-01-25T03:54:24;6.40;;;1.50;;
6947;SDS011;3513;47.664;9.162;2024-01-25T03:56:50;6.53;;;2.10;;
6947;SDS011;3513;47.664;9.162;2024-01-25T03:59:16;5.33;;;1.20;;
6947;SDS011;3513;47.664;9.162;2024-01-25T04:01:44;4.87;;;1.40;;
6947;SDS011;3513;47.664;9.162;2024-01-25T04:04:11;3.57;;;0.97;;
6947;SDS011;3513;47.664;9.162;2024-01-25T04:06:40;2.03;;;1.00;;
6947;SDS011;3513;47.664;9.162;2024-01-25T04:09:07;11.23;;;1.07;;
6947;SDS011;3513;47.664;9.162;2024-01-25T04:11:33;6.17;;;1.33;;
6947;SDS011;3513;47.664;9.162;2024-01-25T04:13:59;3.47;;;0.80;;
6947;SDS011;3513;47.664;9.162;2024-01-25T04:16:25;2.07;;;1.00;;
6947;SDS011;3513;47.664;9.162;2024-01-25T04:18:51;1.50;;;1.00;;
6947;SDS011;3513;47.664;9.162;2024-01-25T04:21:17;3.03;;;1.00;;
6947;SDS011;3513;47.664;9.162;2024-01-25T04:23:42;3.43;;;0.90;;
6947;SDS011;3513;47.664;9.162;2024-01-25T04:26:08;6.20;;;1.00;;
6947;SDS011;3513;47.664;9.162;2024-01-25T04:28:33;2.17;;;1.20;;
6947;SDS011;3513;47.664;9.162;2024-01-25T04:30:59;4.90;;;1.27;;
6947;SDS011;3513;47.664;9.162;2024-01-25T04:33:24;4.40;;;1.50;;
6947;SDS011;3513;47.664;9.162;2024-01-25T04:35:50;4.97;;;1.50;;
6947;SDS011;3513;47.664;9.162;2024-01-25T04:38:15;4.83;;;1.37;;
6947;SDS011;3513;47.664;9.162;2024-01-25T04:40:41;7.60;;;1.90;;
6947;SDS011;3513;47.664;9.162;2024-01-25T04:43:07;7.57;;;1.67;;
6947;SDS011;3513;47.664;9.162;2024-01-25T04:45:32;4.97;;;2.30;;
6947;SDS011;3513;47.664;9.162;2024-01-25T04:47:58;4.00;;;2.10;;
6947;SDS011;3513;47.664;9.162;2024-01-25T04:50:23;5.63;;;1.90;;
6947;SDS011;3513;47.664;9.162;2024-01-25T04:52:49;3.33;;;2.30;;
6947;SDS011;3513;47.664;9.162;2024-01-25T04:55:14;6.03;;;2.40;;
6947;SDS011;3513;47.664;9.162;2024-01-25T04:57:40;4.53;;;2.60;;
6947;SDS011;3513;47.664;9.162;2024-01-25T05:00:06;6.10;;;2.67;;
6947;SDS011;3513;47.664;9.162;2024-01-25T05:02:33;11.63;;;2.53;;
6947;SDS011;3513;47.664;9.162;2024-01-25T05:04:59;5.30;;;2.47;;
6947;SDS011;3513;47.664;9.162;2024-01-25T05:07:24;7.13;;;2.50;;
6947;SDS011;3513;47.664;9.162;2024-01-25T05:09:50;9.23;;;2.87;;
6947;SDS011;3513;47.664;9.162;2024-01-25T05:12:15;2.07;;;1.80;;
6947;SDS011;3513;47.664;9.162;2024-01-25T05:14:41;5.40;;;3.17;;
6947;SDS011;3513;47.664;9.162;2024-01-25T05:17:07;9.57;;;3.20;;
6947;SDS011;3513;47.664;9.162;2024-01-25T05:19:32;16.80;;;3.73;;
6947;SDS011;3513;47.664;9.162;2024-01-25T05:21:58;12.07;;;2.10;;
6947;SDS011;3513;47.664;9.162;2024-01-25T05:24:23;9.93;;;4.37;;
6947;SDS011;3513;47.664;9.162;2024-01-25T05:26:49;18.00;;;5.53;;
6947;SDS011;3513;47.664;9.162;2024-01-25T05:29:15;6.23;;;4.13;;
6947;SDS011;3513;47.664;9.162;2024-01-25T05:31:41;13.47;;;5.30;;
6947;SDS011;3513;47.664;9.162;2024-01-25T05:34:07;15.43;;;5.43;;
6947;SDS011;3513;47.664;9.162;2024-01-25T05:36:32;10.17;;;5.37;;
6947;SDS011;3513;47.664;9.162;2024-01-25T05:38:58;9.67;;;6.50;;
6947;SDS011;3513;47.664;9.162;2024-01-25T05:41:23;8.80;;;5.30;;
6947;SDS011;3513;47.664;9.162;2024-01-25T05:43:50;9.47;;;5.80;;
6947;SDS011;3513;47.664;9.162;2024-01-25T05:46:16;17.93;;;6.60;;
6947;SDS011;3513;47.664;9.162;2024-01-25T05:48:41;8.33;;;6.07;;
6947;SDS011;3513;47.664;9.162;2024-01-25T05:51:07;14.13;;;7.60;;
6947;SDS011;3513;47.664;9.162;2024-01-25T05:53:32;18.73;;;9.63;;
6947;SDS011;3513;47.664;9.162;2024-01-25T05:55:58;30.60;;;18.53;;
6947;SDS011;3513;47.664;9.162;2024-01-25T05:58:23;13.23;;;6.93;;
6947;SDS011;3513;47.664;9.162;2024-01-25T06:00:49;10.50;;;6.20;;
6947;SDS011;3513;47.664;9.162;2024-01-25T06:03:15;15.63;;;5.90;;
6947;SDS011;3513;47.664;9.162;2024-01-25T06:05:41;12.57;;;7.50;;
6947;SDS011;3513;47.664;9.162;2024-01-25T06:08:06;15.20;;;6.77;;
6947;SDS011;3513;47.664;9.162;2024-01-25T06:10:32;20.43;;;8.10;;
6947;SDS011;3513;47.664;9.162;2024-01-25T06:12:58;18.07;;;6.47;;
6947;SDS011;3513;47.664;9.162;2024-01-25T06:15:23;29.97;;;8.70;;
6947;SDS011;3513;47.664;9.162;2024-01-25T06:17:49;15.10;;;5.20;;
6947;SDS011;3513;47.664;9.162;2024-01-25T06:20:14;21.13;;;5.63;;
6947;SDS011;3513;47.664;9.162;2024-01-25T06:22:40;12.37;;;6.83;;
6947;SDS011;3513;47.664;9.162;2024-01-25T06:25:06;16.40;;;7.20;;
6947;SDS011;3513;47.664;9.162;2024-01-25T06:27:32;17.50;;;7.80;;
6947;SDS011;3513;47.664;9.162;2024-01-25T06:29:58;8.97;;;6.63;;
6947;SDS011;3513;47.664;9.162;2024-01-25T06:32:23;16.50;;;6.90;;
6947;SDS011;3513;47.664;9.162;2024-01-25T06:34:49;11.70;;;7.30;;
6947;SDS011;3513;47.664;9.162;2024-01-25T06:37:14;14.27;;;8.87;;
6947;SDS011;3513;47.664;9.162;2024-01-25T06:39:41;10.90;;;8.33;;
6947;SDS011;3513;47.664;9.162;2024-01-25T06:42:06;15.27;;;7.90;;
6947;SDS011;3513;47.664;9.162;2024-01-25T06:44:32;19.93;;;9.47;;
6947;SDS011;3513;47.664;9.162;2024-01-25T06:46:57;15.10;;;9.87;;
6947;SDS011;3513;47.664;9.162;2024-01-25T06:49:23;24.23;;;12.10;;
6947;SDS011;3513;47.664;9.162;2024-01-25T06:51:48;22.33;;;10.83;;
6947;SDS011;3513;47.664;9.162;2024-01-25T06:54:14;18.07;;;11.60;;
6947;SDS011;3513;47.664;9.162;2024-01-25T06:56:40;34.03;;;11.73;;
6947;SDS011;3513;47.664;9.162;2024-01-25T06:59:06;93.77;;;13.97;;
6947;SDS011;3513;47.664;9.162;2024-01-25T07:01:31;143.10;;;14.70;;
6947;SDS011;3513;47.664;9.162;2024-01-25T07:03:57;44.70;;;10.90;;
6947;SDS011;3513;47.664;9.162;2024-01-25T07:06:23;66.53;;;9.30;;
6947;SDS011;3513;47.664;9.162;2024-01-25T07:08:49;42.33;;;8.80;;
6947;SDS011;3513;47.664;9.162;2024-01-25T07:11:15;32.50;;;10.47;;
6947;SDS011;3513;47.664;9.162;2024-01-25T07:13:42;18.77;;;8.50;;
6947;SDS011;3513;47.664;9.162;2024-01-25T07:16:07;12.73;;;7.60;;
6947;SDS011;3513;47.664;9.162;2024-01-25T07:18:33;13.73;;;7.63;;
6947;SDS011;3513;47.664;9.162;2024-01-25T07:20:58;12.47;;;7.20;;
6947;SDS011;3513;47.664;9.162;2024-01-25T07:23:24;15.90;;;7.90;;
6947;SDS011;3513;47.664;9.162;2024-01-25T07:25:51;14.67;;;6.37;;
6947;SDS011;3513;47.664;9.162;2024-01-25T07:28:18;12.33;;;6.43;;
6947;SDS011;3513;47.664;9.162;2024-01-25T07:30:46;9.37;;;6.80;;
6947;SDS011;3513;47.664;9.162;2024-01-25T07:33:12;20.23;;;5.30;;
6947;SDS011;3513;47.664;9.162;2024-01-25T07:35:37;21.97;;;5.83;;
6947;SDS011;3513;47.664;9.162;2024-01-25T07:38:07;17.73;;;5.63;;
6947;SDS011;3513;47.664;9.162;2024-01-25T07:40:32;8.47;;;5.20;;
6947;SDS011;3513;47.664;9.162;2024-01-25T07:42:58;16.97;;;5.00;;
6947;SDS011;3513;47.664;9.162;2024-01-25T07:45:24;9.77;;;5.90;;
6947;SDS011;3513;47.664;9.162;2024-01-25T07:47:50;9.57;;;5.00;;
6947;SDS011;3513;47.664;9.162;2024-01-25T07:50:15;14.93;;;6.40;;
6947;SDS011;3513;47.664;9.162;2024-01-25T07:52:42;19.70;;;6.13;;
6947;SDS011;3513;47.664;9.162;2024-01-25T07:55:07;14.17;;;5.47;;
6947;SDS011;3513;47.664;9.162;2024-01-25T07:57:33;13.23;;;4.70;;
6947;SDS011;3513;47.664;9.162;2024-01-25T07:59:59;11.20;;;5.40;;
6947;SDS011;3513;47.664;9.162;2024-01-25T08:02:24;19.00;;;4.70;;
6947;SDS011;3513;47.664;9.162;2024-01-25T08:04:50;14.50;;;5.30;;
6947;SDS011;3513;47.664;9.162;2024-01-25T08:07:15;20.83;;;5.97;;
6947;SDS011;3513;47.664;9.162;2024-01-25T08:09:41;19.20;;;6.50;;
6947;SDS011;3513;47.664;9.162;2024-01-25T08:12:07;53.90;;;14.10;;
6947;SDS011;3513;47.664;9.162;2024-01-25T08:14:33;84.83;;;21.97;;
6947;SDS011;3513;47.664;9.162;2024-01-25T08:16:59;56.30;;;14.30;;
6947;SDS011;3513;47.664;9.162;2024-01-25T08:19:25;57.67;;;15.60;;
6947;SDS011;3513;47.664;9.162;2024-01-25T08:21:50;45.23;;;12.87;;
6947;SDS011;3513;47.664;9.162;2024-01-25T08:24:16;26.03;;;7.00;;
6947;SDS011;3513;47.664;9.162;2024-01-25T08:26:41;19.43;;;8.00;;
6947;SDS011;3513;47.664;9.162;2024-01-25T08:29:07;26.90;;;10.93;;
6947;SDS011;3513;47.664;9.162;2024-01-25T08:31:32;27.83;;;11.13;;
6947;SDS011;3513;47.664;9.162;2024-01-25T08:33:58;33.47;;;10.00;;
6947;SDS011;3513;47.664;9.162;2024-01-25T08:36:24;18.57;;;6.40;;
6947;SDS011;3513;47.664;9.162;2024-01-25T08:38:49;20.23;;;7.27;;
6947;SDS011;3513;47.664;9.162;2024-01-25T08:41:15;19.60;;;7.50;;
6947;SDS011;3513;47.664;9.162;2024-01-25T08:43:41;19.53;;;9.00;;
6947;SDS011;3513;47.664;9.162;2024-01-25T08:46:07;39.43;;;11.80;;
6947;SDS011;3513;47.664;9.162;2024-01-25T08:48:33;27.13;;;9.43;;
6947;SDS011;3513;47.664;9.162;2024-01-25T08:50:59;25.63;;;7.43;;
6947;SDS011;3513;47.664;9.162;2024-01-25T08:53:25;24.10;;;8.30;;
6947;SDS011;3513;47.664;9.162;2024-01-25T08:55:53;18.33;;;7.30;;
6947;SDS011;3513;47.664;9.162;2024-01-25T08:58:19;15.10;;;6.90;;
6947;SDS011;3513;47.664;9.162;2024-01-25T09:00:45;14.70;;;6.57;;
6947;SDS011;3513;47.664;9.162;2024-01-25T09:03:11;18.40;;;7.53;;
6947;SDS011;3513;47.664;9.162;2024-01-25T09:05:36;19.63;;;7.60;;
6947;SDS011;3513;47.664;9.162;2024-01-25T09:08:05;19.97;;;8.73;;
6947;SDS011;3513;47.664;9.162;2024-01-25T09:10:32;11.70;;;7.60;;
6947;SDS011;3513;47.664;9.162;2024-01-25T09:12:57;15.63;;;9.20;;
6947;SDS011;3513;47.664;9.162;2024-01-25T09:15:23;13.00;;;6.60;;
6947;SDS011;3513;47.664;9.162;2024-01-25T09:17:48;13.60;;;5.60;;
6947;SDS011;3513;47.664;9.162;2024-01-25T09:20:14;12.17;;;5.97;;
6947;SDS011;3513;47.664;9.162;2024-01-25T09:22:40;14.23;;;5.60;;
6947;SDS011;3513;47.664;9.162;2024-01-25T09:25:06;6.63;;;3.67;;
6947;SDS011;3513;47.664;9.162;2024-01-25T09:27:32;12.70;;;3.80;;
6947;SDS011;3513;47.664;9.162;2024-01-25T09:29:58;12.87;;;3.27;;
6947;SDS011;3513;47.664;9.162;2024-01-25T09:32:23;11.27;;;3.10;;
6947;SDS011;3513;47.664;9.162;2024-01-25T09:34:49;10.20;;;4.37;;
6947;SDS011;3513;47.664;9.162;2024-01-25T09:37:14;17.77;;;6.10;;
6947;SDS011;3513;47.664;9.162;2024-01-25T09:39:40;10.83;;;5.00;;
6947;SDS011;3513;47.664;9.162;2024-01-25T09:42:06;15.30;;;3.63;;
6947;SDS011;3513;47.664;9.162;2024-01-25T09:44:32;5.00;;;2.77;;
6947;SDS011;3513;47.664;9.162;2024-01-25T09:46:58;7.93;;;3.73;;
6947;SDS011;3513;47.664;9.162;2024-01-25T09:49:27;10.37;;;3.67;;
6947;SDS011;3513;47.664;9.162;2024-01-25T09:51:53;14.20;;;5.50;;
6947;SDS011;3513;47.664;9.162;2024-01-25T09:54:20;9.90;;;4.27;;
6947;SDS011;3513;47.664;9.162;2024-01-25T09:56:46;18.50;;;8.43;;
6947;SDS011;3513;47.664;9.162;2024-01-25T09:59:16;23.50;;;9.87;;
6947;SDS011;3513;47.664;9.162;2024-01-25T10:01:41;22.60;;;9.77;;
6947;SDS011;3513;47.664;9.162;2024-01-25T10:04:08;10.30;;;5.17;;
6947;SDS011;3513;47.664;9.162;2024-01-25T10:06:36;20.00;;;7.53;;
6947;SDS011;3513;47.664;9.162;2024-01-25T10:09:03;18.80;;;6.90;;
6947;SDS011;3513;47.664;9.162;2024-01-25T10:11:29;30.23;;;13.50;;
6947;SDS011;3513;47.664;9.162;2024-01-25T10:14:00;18.73;;;8.77;;
6947;SDS011;3513;47.664;9.162;2024-01-25T10:16:26;25.60;;;12.10;;
6947;SDS011;3513;47.664;9.162;2024-01-25T10:18:52;15.13;;;7.87;;
6947;SDS011;3513;47.664;9.162;2024-01-25T10:21:18;11.53;;;7.27;;
6947;SDS011;3513;47.664;9.162;2024-01-25T10:23:44;16.27;;;6.97;;
6947;SDS011;3513;47.664;9.162;2024-01-25T10:26:13;14.70;;;6.03;;
6947;SDS011;3513;47.664;9.162;2024-01-25T10:28:39;17.23;;;9.07;;
6947;SDS011;3513;47.664;9.162;2024-01-25T10:31:05;15.40;;;7.97;;
6947;SDS011;3513;47.664;9.162;2024-01-25T10:33:31;18.83;;;9.80;;
6947;SDS011;3513;47.664;9.162;2024-01-25T10:35:58;18.17;;;9.53;;
6947;SDS011;3513;47.664;9.162;2024-01-25T10:38:31;18.40;;;7.60;;
6947;SDS011;3513;47.664;9.162;2024-01-25T10:41:02;18.03;;;8.77;;
6947;SDS011;3513;47.664;9.162;2024-01-25T10:43:29;14.60;;;8.93;;
6947;SDS011;3513;47.664;9.162;2024-01-25T10:46:01;14.63;;;7.27;;
6947;SDS011;3513;47.664;9.162;2024-01-25T10:48:27;12.33;;;5.70;;
6947;SDS011;3513;47.664;9.162;2024-01-25T10:50:54;13.53;;;5.60;;
6947;SDS011;3513;47.664;9.162;2024-01-25T10:53:21;8.90;;;4.27;;
6947;SDS011;3513;47.664;9.162;2024-01-25T10:55:47;5.60;;;4.10;;
6947;SDS011;3513;47.664;9.162;2024-01-25T10:58:15;5.60;;;3.43;;
6947;SDS011;3513;47.664;9.162;2024-01-25T11:00:42;11.07;;;4.10;;
6947;SDS011;3513;47.664;9.162;2024-01-25T11:03:20;7.50;;;3.83;;
6947;SDS011;3513;47.664;9.162;2024-01-25T11:05:50;5.77;;;2.23;;
6947;SDS011;3513;47.664;9.162;2024-01-25T11:08:18;3.97;;;1.83;;
6947;SDS011;3513;47.664;9.162;2024-01-25T11:10:46;6.93;;;2.07;;
6947;SDS011;3513;47.664;9.162;2024-01-25T11:13:15;7.70;;;4.53;;
6947;SDS011;3513;47.664;9.162;2024-01-25T11:15:41;5.00;;;0.93;;
6947;SDS011;3513;47.664;9.162;2024-01-25T11:18:07;2.50;;;0.83;;
6947;SDS011;3513;47.664;9.162;2024-01-25T11:20:34;1.80;;;1.33;;
6947;SDS011;3513;47.664;9.162;2024-01-25T11:23:01;4.83;;;1.40;;
6947;SDS011;3513;47.664;9.162;2024-01-25T11:25:32;4.87;;;1.57;;
6947;SDS011;3513;47.664;9.162;2024-01-25T11:27:59;1.70;;;1.20;;
6947;SDS011;3513;47.664;9.162;2024-01-25T11:30:26;7.00;;;1.60;;
6947;SDS011;3513;47.664;9.162;2024-01-25T11:32:52;2.90;;;1.50;;
6947;SDS011;3513;47.664;9.162;2024-01-25T11:35:18;1.97;;;1.40;;
6947;SDS011;3513;47.664;9.162;2024-01-25T11:37:45;10.87;;;1.77;;
6947;SDS011;3513;47.664;9.162;2024-01-25T11:40:11;3.37;;;1.80;;
6947;SDS011;3513;47.664;9.162;2024-01-25T11:42:38;21.23;;;1.93;;
6947;SDS011;3513;47.664;9.162;2024-01-25T11:45:05;2.60;;;1.60;;
6947;SDS011;3513;47.664;9.162;2024-01-25T11:47:34;2.80;;;1.10;;
6947;SDS011;3513;47.664;9.162;2024-01-25T11:50:00;2.50;;;1.50;;
6947;SDS011;3513;47.664;9.162;2024-01-25T11:52:27;6.20;;;1.87;;
6947;SDS011;3513;47.664;9.162;2024-01-25T11:54:53;3.40;;;1.70;;
6947;SDS011;3513;47.664;9.162;2024-01-25T11:57:18;7.07;;;1.67;;
6947;SDS011;3513;47.664;9.162;2024-01-25T11:59:44;5.13;;;1.80;;
6947;SDS011;3513;47.664;9.162;2024-01-25T12:02:13;5.77;;;1.60;;
6947;SDS011;3513;47.664;9.162;2024-01-25T12:04:39;4.50;;;1.20;;
6947;SDS011;3513;47.664;9.162;2024-01-25T12:07:04;4.33;;;1.40;;
6947;SDS011;3513;47.664;9.162;2024-01-25T12:09:30;1.67;;;1.43;;
6947;SDS011;3513;47.664;9.162;2024-01-25T12:11:56;3.77;;;1.33;;
6947;SDS011;3513;47.664;9.162;2024-01-25T12:14:23;2.87;;;1.47;;
6947;SDS011;3513;47.664;9.162;2024-01-25T12:16:49;3.37;;;1.40;;
6947;SDS011;3513;47.664;9.162;2024-01-25T12:19:15;2.77;;;1.37;;
6947;SDS011;3513;47.664;9.162;2024-01-25T12:21:43;1.73;;;1.20;;
6947;SDS011;3513;47.664;9.162;2024-01-25T12:24:09;3.53;;;1.80;;
6947;SDS011;3513;47.664;9.162;2024-01-25T12:26:35;3.20;;;1.70;;
6947;SDS011;3513;47.664;9.162;2024-01-25T12:29:01;8.53;;;2.10;;
6947;SDS011;3513;47.664;9.162;2024-01-25T12:31:28;3.87;;;2.10;;
6947;SDS011;3513;47.664;9.162;2024-01-25T12:33:54;7.40;;;2.17;;
6947;SDS011;3513;47.664;9.162;2024-01-25T12:36:19;8.90;;;3.30;;
6947;SDS011;3513;47.664;9.162;2024-01-25T12:38:45;7.10;;;3.33;;
6947;SDS011;3513;47.664;9.162;2024-01-25T12:41:11;6.93;;;4.17;;
6947;SDS011;3513;47.664;9.162;2024-01-25T12:43:36;2.53;;;1.90;;
6947;SDS011;3513;47.664;9.162;2024-01-25T12:46:02;6.83;;;4.00;;
6947;SDS011;3513;47.664;9.162;2024-01-25T12:48:28;7.50;;;3.50;;
6947;SDS011;3513;47.664;9.162;2024-01-25T12:50:53;5.47;;;2.33;;
6947;SDS011;3513;47.664;9.162;2024-01-25T12:53:19;7.70;;;2.60;;
6947;SDS011;3513;47.664;9.162;2024-01-25T12:55:48;17.13;;;8.40;;
6947;SDS011;3513;47.664;9.162;2024-01-25T12:58:13;4.93;;;3.37;;
6947;SDS011;3513;47.664;9.162;2024-01-25T13:00:39;13.70;;;9.37;;
6947;SDS011;3513;47.664;9.162;2024-01-25T13:03:04;2.60;;;2.40;;
6947;SDS011;3513;47.664;9.162;2024-01-25T13:05:31;2.87;;;2.20;;
6947;SDS011;3513;47.664;9.162;2024-01-25T13:07:59;5.30;;;2.60;;
6947;SDS011;3513;47.664;9.162;2024-01-25T13:10:26;6.17;;;3.30;;
6947;SDS011;3513;47.664;9.162;2024-01-25T13:12:52;2.40;;;1.90;;
6947;SDS011;3513;47.664;9.162;2024-01-25T13:15:18;2.70;;;2.50;;
6947;SDS011;3513;47.664;9.162;2024-01-25T13:17:44;3.63;;;2.70;;
6947;SDS011;3513;47.664;9.162;2024-01-25T13:20:10;7.70;;;3.40;;
6947;SDS011;3513;47.664;9.162;2024-01-25T13:22:36;2.87;;;2.50;;
6947;SDS011;3513;47.664;9.162;2024-01-25T13:25:01;6.80;;;3.30;;
6947;SDS011;3513;47.664;9.162;2024-01-25T13:27:28;5.50;;;3.43;;
6947;SDS011;3513;47.664;9.162;2024-01-25T13:29:54;2.40;;;2.20;;
6947;SDS011;3513;47.664;9.162;2024-01-25T13:32:20;6.67;;;5.40;;
6947;SDS011;3513;47.664;9.162;2024-01-25T13:34:46;6.77;;;3.23;;
6947;SDS011;3513;47.664;9.162;2024-01-25T13:37:11;5.50;;;3.47;;
6947;SDS011;3513;47.664;9.162;2024-01-25T13:39:37;16.80;;;11.20;;
6947;SDS011;3513;47.664;9.162;2024-01-25T13:42:02;13.23;;;5.77;;
6947;SDS011;3513;47.664;9.162;2024-01-25T13:44:28;3.20;;;2.80;;
6947;SDS011;3513;47.664;9.162;2024-01-25T13:46:53;2.30;;;2.10;;
6947;SDS011;3513;47.664;9.162;2024-01-25T13:49:21;8.73;;;5.20;;
6947;SDS011;3513;47.664;9.162;2024-01-25T13:51:46;5.43;;;2.57;;
6947;SDS011;3513;47.664;9.162;2024-01-25T13:54:12;7.90;;;4.00;;
6947;SDS011;3513;47.664;9.162;2024-01-25T13:56:38;2.43;;;2.03;;
6947;SDS011;3513;47.664;9.162;2024-01-25T13:59:04;3.50;;;2.00;;
6947;SDS011;3513;47.664;9.162;2024-01-25T14:01:30;5.03;;;2.00;;
6947;SDS011;3513;47.664;9.162;2024-01-25T14:03:56;2.43;;;1.77;;
6947;SDS011;3513;47.664;9.162;2024-01-25T14:06:22;3.30;;;1.93;;
6947;SDS011;3513;47.664;9.162;2024-01-25T14:08:48;3.00;;;1.63;;
6947;SDS011;3513;47.664;9.162;2024-01-25T14:11:13;4.30;;;2.17;;
6947;SDS011;3513;47.664;9.162;2024-01-25T14:13:39;3.00;;;2.50;;
6947;SDS011;3513;47.664;9.162;2024-01-25T14:16:04;3.00;;;1.73;;
6947;SDS011;3513;47.664;9.162;2024-01-25T14:18:35;2.43;;;1.67;;
6947;SDS011;3513;47.664;9.162;2024-01-25T14:21:02;1.90;;;1.40;;
6947;SDS011;3513;47.664;9.162;2024-01-25T14:23:28;1.60;;;1.47;;
6947;SDS011;3513;47.664;9.162;2024-01-25T14:25:53;6.13;;;4.17;;
6947;SDS011;3513;47.664;9.162;2024-01-25T14:28:19;1.90;;;1.47;;
6947;SDS011;3513;47.664;9.162;2024-01-25T14:30:44;2.17;;;1.70;;
6947;SDS011;3513;47.664;9.162;2024-01-25T14:33:11;9.57;;;2.80;;
6947;SDS011;3513;47.664;9.162;2024-01-25T14:35:37;7.77;;;1.80;;
6947;SDS011;3513;47.664;9.162;2024-01-25T14:38:02;9.20;;;2.57;;
6947;SDS011;3513;47.664;9.162;2024-01-25T14:40:28;4.90;;;3.20;;
6947;SDS011;3513;47.664;9.162;2024-01-25T14:42:54;5.60;;;2.90;;
6947;SDS011;3513;47.664;9.162;2024-01-25T14:45:19;5.27;;;3.00;;
6947;SDS011;3513;47.664;9.162;2024-01-25T14:47:45;4.10;;;2.00;;
6947;SDS011;3513;47.664;9.162;2024-01-25T14:50:11;2.33;;;1.73;;
6947;SDS011;3513;47.664;9.162;2024-01-25T14:52:36;4.00;;;2.40;;
6947;SDS011;3513;47.664;9.162;2024-01-25T14:55:05;1.93;;;1.73;;
6947;SDS011;3513;47.664;9.162;2024-01-25T14:57:31;7.00;;;3.10;;
6947;SDS011;3513;47.664;9.162;2024-01-25T14:59:56;7.43;;;2.43;;
6947;SDS011;3513;47.664;9.162;2024-01-25T15:02:22;4.80;;;2.10;;